createdAt,value
2017-12-14T00:01:15.797Z,92.81
2017-12-14T00:03:43.410Z,93.06
2017-12-14T00:06:11.030Z,93.37
2017-12-14T00:08:38.620Z,93.54
2017-12-14T00:11:06.219Z,93.85
2017-12-14T00:13:34.329Z,94.03
2017-12-14T00:16:01.980Z,94.06
2017-12-14T00:18:29.589Z,94.33
2017-12-14T00:20:57.158Z,94.24
2017-12-14T00:23:24.905Z,94.57
2017-12-14T00:25:52.499Z,94.63
2017-12-14T00:28:20.091Z,94.81
2017-12-14T00:30:47.666Z,94.91
2017-12-14T00:33:15.290Z,94.92
2017-12-14T00:35:42.929Z,95.11
2017-12-14T00:38:10.586Z,95.18
2017-12-14T00:40:38.154Z,95.28
2017-12-14T00:43:05.779Z,95.41
2017-12-14T00:45:33.435Z,95.57
2017-12-14T00:48:00.995Z,95.33
2017-12-14T00:50:28.643Z,95.17
2017-12-14T00:52:56.215Z,95.06
2017-12-14T00:55:23.800Z,95.37
2017-12-14T00:57:51.643Z,95.13
2017-12-14T01:00:19.279Z,95.05
2017-12-14T01:02:46.863Z,94.01
2017-12-14T01:05:14.429Z,93.84
2017-12-14T01:07:42.105Z,93.46
2017-12-14T01:10:09.689Z,93.42
2017-12-14T01:12:37.295Z,93.23
2017-12-14T01:15:04.870Z,93.05
2017-12-14T01:17:32.523Z,93.08
2017-12-14T01:20:00.105Z,93.48
2017-12-14T01:22:27.695Z,93.74
2017-12-14T01:24:55.285Z,93.82
2017-12-14T01:27:22.862Z,93.89
2017-12-14T01:29:50.443Z,93.91
2017-12-14T01:32:18.020Z,94.15
2017-12-14T01:34:45.607Z,94.18
2017-12-14T01:37:13.316Z,94.15
2017-12-14T01:39:41.291Z,94.57
2017-12-14T01:42:08.871Z,94.82
2017-12-14T01:44:36.451Z,95.05
2017-12-14T01:47:04.045Z,95.15
2017-12-14T01:49:31.602Z,95.30
2017-12-14T01:51:59.327Z,95.25
2017-12-14T01:54:26.901Z,95.24
2017-12-14T01:56:54.519Z,95.60
2017-12-14T01:59:22.155Z,95.84
2017-12-14T02:01:49.770Z,95.72
2017-12-14T02:04:17.337Z,95.76
2017-12-14T02:06:44.915Z,95.94
2017-12-14T02:09:12.537Z,95.90
2017-12-14T02:14:14.033Z,95.92
2017-12-14T02:16:41.653Z,95.84
2017-12-14T02:19:09.257Z,95.78
2017-12-14T02:21:36.819Z,95.80
2017-12-14T02:24:04.473Z,95.97
2017-12-14T02:26:32.047Z,95.90
2017-12-14T02:29:00.057Z,95.82
2017-12-14T02:31:27.633Z,95.98
2017-12-14T02:33:55.213Z,96.14
2017-12-14T02:36:22.856Z,96.25
2017-12-14T02:38:50.429Z,96.39
2017-12-14T02:41:18.031Z,96.38
2017-12-14T02:43:45.589Z,96.23
2017-12-14T02:46:13.223Z,96.11
2017-12-14T02:48:40.793Z,96.01
2017-12-14T02:51:08.413Z,95.91
2017-12-14T02:53:35.977Z,95.67
2017-12-14T02:56:03.557Z,95.64
2017-12-14T02:58:31.168Z,95.50
2017-12-14T03:00:58.743Z,95.34
2017-12-14T03:03:26.326Z,95.19
2017-12-14T03:05:53.889Z,95.10
2017-12-14T03:08:21.507Z,95.02
2017-12-14T03:10:49.078Z,94.97
2017-12-14T03:13:16.713Z,94.98
2017-12-14T03:15:44.311Z,94.88
2017-12-14T03:18:11.885Z,94.54
2017-12-14T03:20:39.526Z,94.67
2017-12-14T03:23:07.121Z,95.13
2017-12-14T03:25:34.753Z,94.69
2017-12-14T03:28:02.381Z,94.26
2017-12-14T03:30:29.983Z,93.51
2017-12-14T03:32:57.563Z,92.73
2017-12-14T03:35:25.193Z,92.22
2017-12-14T03:37:52.754Z,91.98
2017-12-14T03:40:20.358Z,91.21
2017-12-14T03:42:47.935Z,90.85
2017-12-14T03:45:15.512Z,90.59
2017-12-14T03:47:43.109Z,89.90
2017-12-14T03:50:10.708Z,89.58
2017-12-14T03:52:38.310Z,89.80
2017-12-14T03:55:05.891Z,89.74
2017-12-14T03:57:33.470Z,89.59
2017-12-14T04:00:01.100Z,89.08
2017-12-14T04:02:28.685Z,88.38
2017-12-14T04:04:56.251Z,87.49
2017-12-14T04:07:23.849Z,87.88
2017-12-14T04:09:51.436Z,87.57
2017-12-14T04:12:19.357Z,87.39
2017-12-14T04:14:46.937Z,87.49
2017-12-14T04:17:14.502Z,88.09
2017-12-14T04:19:42.081Z,87.33
2017-12-14T04:22:09.703Z,87.67
2017-12-14T04:24:37.390Z,87.92
2017-12-14T04:27:04.980Z,88.72
2017-12-14T04:29:32.716Z,89.50
2017-12-14T04:32:00.280Z,89.76
2017-12-14T04:34:27.896Z,89.31
2017-12-14T04:36:55.488Z,89.50
2017-12-14T04:39:23.319Z,89.81
2017-12-14T04:41:50.904Z,89.57
2017-12-14T04:44:18.487Z,89.64
2017-12-14T04:46:46.113Z,89.47
2017-12-14T04:49:13.678Z,89.95
2017-12-14T04:51:41.296Z,90.29
2017-12-14T04:54:08.864Z,90.65
2017-12-14T04:56:36.430Z,90.57
2017-12-14T04:59:04.041Z,90.45
2017-12-14T05:01:31.686Z,90.67
2017-12-14T05:03:59.266Z,90.77
2017-12-14T05:06:26.856Z,91.09
2017-12-14T05:08:54.436Z,90.85
2017-12-14T05:11:22.190Z,90.67
2017-12-14T05:13:49.864Z,90.29
2017-12-14T05:16:17.436Z,89.77
2017-12-14T05:18:45.055Z,89.81
2017-12-14T05:21:17.446Z,89.70
2017-12-14T05:23:45.038Z,89.16
2017-12-14T05:26:12.643Z,88.73
2017-12-14T05:28:40.286Z,88.59
2017-12-14T05:31:07.882Z,88.78
2017-12-14T05:33:35.577Z,88.59
2017-12-14T05:36:03.136Z,89.33
2017-12-14T05:38:30.820Z,90.14
2017-12-14T05:40:58.440Z,90.78
2017-12-14T05:43:26.022Z,89.96
2017-12-14T05:45:53.596Z,89.78
2017-12-14T05:48:21.183Z,89.86
2017-12-14T05:50:48.758Z,90.11
2017-12-14T05:53:16.350Z,90.36
2017-12-14T05:55:43.997Z,90.68
2017-12-14T05:58:11.558Z,90.73
2017-12-14T06:00:39.176Z,90.95
2017-12-14T06:03:06.749Z,90.93
2017-12-14T06:05:34.360Z,90.67
2017-12-14T06:08:01.953Z,90.43
2017-12-14T06:10:29.555Z,90.24
2017-12-14T06:12:57.161Z,89.13
2017-12-14T06:15:24.742Z,89.07
2017-12-14T06:17:52.325Z,88.89
2017-12-14T06:20:19.899Z,88.68
2017-12-14T06:22:47.477Z,89.03
2017-12-14T06:25:15.053Z,88.07
2017-12-14T06:27:42.637Z,89.84
2017-12-14T06:30:10.212Z,93.26
2017-12-14T06:32:37.790Z,94.50
2017-12-14T06:35:05.370Z,94.60
2017-12-14T06:37:32.959Z,94.33
2017-12-14T06:40:00.577Z,94.49
2017-12-14T06:42:28.150Z,94.48
2017-12-14T06:44:55.754Z,94.61
2017-12-14T06:47:23.381Z,94.79
2017-12-14T06:49:51.005Z,95.14
2017-12-14T06:52:18.580Z,95.31
2017-12-14T06:54:46.202Z,95.64
2017-12-14T06:57:13.758Z,95.70
2017-12-14T06:59:41.315Z,95.78
2017-12-14T07:02:08.939Z,95.57
2017-12-14T07:04:36.527Z,95.32
2017-12-14T07:07:04.126Z,95.23
2017-12-14T07:09:31.701Z,95.04
2017-12-14T07:11:59.319Z,95.10
2017-12-14T07:14:26.908Z,94.89
2017-12-14T07:16:54.520Z,95.11
2017-12-14T07:19:22.105Z,95.36
2017-12-14T07:21:49.682Z,95.57
2017-12-14T07:24:17.305Z,95.69
2017-12-14T07:26:44.924Z,95.71
2017-12-14T07:29:12.506Z,95.86
2017-12-14T07:31:40.081Z,95.84
2017-12-14T07:34:07.679Z,95.73
2017-12-14T07:36:35.257Z,95.83
2017-12-14T07:39:02.892Z,95.28
2017-12-14T07:41:30.511Z,94.98
2017-12-14T07:44:10.061Z,94.83
2017-12-14T07:46:50.026Z,94.60
2017-12-14T07:49:24.315Z,94.55
2017-12-14T07:51:51.890Z,94.29
2017-12-14T07:54:19.454Z,93.98
2017-12-14T07:56:47.054Z,93.67
2017-12-14T07:59:14.626Z,93.52
2017-12-14T08:01:42.202Z,93.54
2017-12-14T08:04:09.816Z,93.52
2017-12-14T08:06:37.406Z,92.94
2017-12-14T08:09:04.987Z,92.60
2017-12-14T08:11:32.616Z,92.57
2017-12-14T08:14:00.172Z,92.59
2017-12-14T08:16:27.745Z,92.64
2017-12-14T08:18:55.351Z,92.41
2017-12-14T08:21:22.923Z,92.05
2017-12-14T08:23:50.618Z,91.54
2017-12-14T08:26:18.220Z,91.57
2017-12-14T08:28:45.822Z,91.42
2017-12-14T08:31:13.386Z,91.08
2017-12-14T08:33:41.005Z,90.92
2017-12-14T08:36:08.555Z,90.85
2017-12-14T08:38:36.127Z,90.74
2017-12-14T08:41:04.226Z,90.95
2017-12-14T08:43:32.369Z,90.54
2017-12-14T08:46:00.042Z,90.29
2017-12-14T08:48:27.603Z,90.45
2017-12-14T08:50:55.222Z,90.29
2017-12-14T08:53:22.801Z,89.46
2017-12-14T08:55:50.461Z,89.61
2017-12-14T08:58:18.030Z,88.67
2017-12-14T09:00:45.617Z,88.06
2017-12-14T09:03:13.228Z,87.90
2017-12-14T09:05:40.829Z,86.99
2017-12-14T09:08:08.455Z,87.05
2017-12-14T09:10:36.032Z,87.42
2017-12-14T09:13:03.628Z,87.38
2017-12-14T09:15:31.202Z,87.01
2017-12-14T09:17:58.867Z,87.02
2017-12-14T09:20:26.446Z,86.75
2017-12-14T09:22:54.044Z,86.19
2017-12-14T09:25:21.615Z,85.77
2017-12-14T09:27:49.212Z,84.99
2017-12-14T09:30:16.778Z,84.43
2017-12-14T09:32:44.351Z,84.38
2017-12-14T09:35:11.960Z,84.12
2017-12-14T09:37:39.548Z,82.93
2017-12-14T09:40:07.195Z,82.42
2017-12-14T09:42:34.766Z,81.64
2017-12-14T09:45:02.405Z,81.12
2017-12-14T09:47:29.958Z,80.64
2017-12-14T09:49:57.561Z,80.34
2017-12-14T09:52:25.137Z,78.62
2017-12-14T09:54:52.725Z,79.63
2017-12-14T09:57:20.323Z,79.25
2017-12-14T09:59:47.932Z,78.75
2017-12-14T10:02:15.538Z,78.23
2017-12-14T10:04:43.105Z,79.20
2017-12-14T10:07:10.707Z,79.66
2017-12-14T10:09:38.319Z,78.43
2017-12-14T10:12:05.947Z,77.61
2017-12-14T10:14:33.517Z,78.67
2017-12-14T10:17:01.137Z,78.81
2017-12-14T10:19:28.722Z,78.15
2017-12-14T10:21:56.299Z,76.68
2017-12-14T10:24:23.909Z,77.74
2017-12-14T10:26:51.486Z,76.14
2017-12-14T10:29:19.078Z,76.77
2017-12-14T10:31:46.652Z,74.33
2017-12-14T10:34:14.265Z,75.74
2017-12-14T10:36:41.857Z,74.36
2017-12-14T10:39:09.434Z,75.11
2017-12-14T10:41:37.001Z,75.32
2017-12-14T10:44:04.761Z,74.02
2017-12-14T10:46:32.319Z,73.82
2017-12-14T10:48:59.961Z,73.50
2017-12-14T10:51:27.533Z,74.09
2017-12-14T10:53:55.133Z,74.25
2017-12-14T10:56:22.717Z,73.39
2017-12-14T10:58:50.311Z,74.33
2017-12-14T11:01:23.587Z,74.86
2017-12-14T11:03:51.159Z,75.15
2017-12-14T11:06:18.835Z,75.15
2017-12-14T11:08:46.416Z,75.17
2017-12-14T11:11:14.019Z,74.35
2017-12-14T11:13:41.613Z,74.51
2017-12-14T11:16:09.205Z,73.88
2017-12-14T11:18:36.847Z,74.25
2017-12-14T11:21:04.457Z,75.01
2017-12-14T11:23:32.071Z,74.87
2017-12-14T11:25:59.674Z,75.07
2017-12-14T11:28:27.275Z,73.67
2017-12-14T11:30:54.857Z,73.06
2017-12-14T11:33:22.447Z,72.04
2017-12-14T11:35:50.002Z,71.65
2017-12-14T11:38:17.661Z,71.73
2017-12-14T11:40:45.264Z,72.72
2017-12-14T11:43:12.840Z,72.87
2017-12-14T11:45:40.455Z,72.74
2017-12-14T11:48:08.025Z,72.54
2017-12-14T11:50:35.743Z,72.61
2017-12-14T11:53:03.326Z,72.46
2017-12-14T11:55:30.970Z,72.17
2017-12-14T11:57:58.551Z,72.61
2017-12-14T12:00:26.149Z,71.95
2017-12-14T12:02:53.741Z,72.25
2017-12-14T12:05:21.351Z,72.43
2017-12-14T12:07:48.985Z,72.62
2017-12-14T12:10:16.727Z,72.95
2017-12-14T12:12:44.305Z,73.10
2017-12-14T12:15:11.880Z,73.09
2017-12-14T12:17:39.566Z,72.19
2017-12-14T12:20:07.141Z,71.64
2017-12-14T12:22:34.747Z,71.15
2017-12-14T12:25:02.324Z,70.12
2017-12-14T12:27:29.911Z,69.92
2017-12-14T12:29:57.503Z,69.91
2017-12-14T12:32:25.099Z,70.18
2017-12-14T12:34:52.690Z,69.62
2017-12-14T12:37:20.268Z,70.16
2017-12-14T12:39:47.926Z,68.01
2017-12-14T12:42:15.549Z,68.35
2017-12-14T12:44:43.144Z,68.98
2017-12-14T12:47:10.727Z,68.31
2017-12-14T12:49:38.308Z,68.99
2017-12-14T12:52:05.930Z,67.91
2017-12-14T12:54:33.536Z,68.23
2017-12-14T12:57:01.136Z,68.38
2017-12-14T12:59:28.998Z,69.15
2017-12-14T13:01:56.600Z,67.42
2017-12-14T13:04:24.160Z,67.01
2017-12-14T13:06:51.764Z,67.87
2017-12-14T13:09:19.310Z,68.36
2017-12-14T13:11:46.894Z,67.70
2017-12-14T13:14:14.493Z,67.22
2017-12-14T13:16:42.080Z,67.12
2017-12-14T13:19:09.685Z,67.23
2017-12-14T13:21:37.286Z,66.39
2017-12-14T13:24:05.908Z,66.74
2017-12-14T13:26:33.494Z,67.47
2017-12-14T13:29:01.120Z,66.67
2017-12-14T13:31:28.719Z,66.45
2017-12-14T13:33:56.367Z,66.71
2017-12-14T13:36:23.940Z,66.22
2017-12-14T13:38:51.550Z,67.63
2017-12-14T13:41:19.144Z,66.67
2017-12-14T13:43:46.732Z,66.94
2017-12-14T13:46:14.333Z,65.86
2017-12-14T13:48:41.948Z,67.07
2017-12-14T13:51:09.552Z,66.67
2017-12-14T13:53:37.110Z,67.37
2017-12-14T13:56:04.726Z,67.94
2017-12-14T13:58:32.329Z,67.85
2017-12-14T14:00:59.954Z,68.21
2017-12-14T14:03:27.558Z,69.11
2017-12-14T14:05:55.184Z,69.40
2017-12-14T14:08:22.775Z,69.11
2017-12-14T14:10:50.506Z,69.34
2017-12-14T14:13:18.114Z,69.89
2017-12-14T14:15:45.689Z,70.44
2017-12-14T14:18:13.321Z,70.48
2017-12-14T14:20:40.904Z,70.24
2017-12-14T14:23:08.500Z,70.99
2017-12-14T14:25:36.058Z,70.91
2017-12-14T14:28:03.637Z,71.63
2017-12-14T14:30:31.228Z,71.72
2017-12-14T14:32:58.848Z,72.09
2017-12-14T14:35:26.449Z,72.83
2017-12-14T14:37:54.069Z,72.86
2017-12-14T14:40:21.686Z,73.16
2017-12-14T14:42:49.273Z,73.36
2017-12-14T14:45:16.882Z,72.74
2017-12-14T14:47:44.490Z,73.53
2017-12-14T14:50:12.160Z,73.12
2017-12-14T14:52:39.744Z,73.82
2017-12-14T14:55:07.326Z,73.06
2017-12-14T14:57:34.924Z,73.35
2017-12-14T15:00:02.486Z,73.58
2017-12-14T15:02:30.100Z,73.91
2017-12-14T15:04:57.730Z,74.33
2017-12-14T15:07:25.373Z,74.20
2017-12-14T15:09:53.344Z,74.40
2017-12-14T15:12:21.009Z,74.49
2017-12-14T15:14:48.609Z,74.68
2017-12-14T15:17:16.214Z,74.51
2017-12-14T15:19:43.897Z,74.68
2017-12-14T15:22:11.499Z,74.69
2017-12-14T15:24:39.127Z,74.66
2017-12-14T15:27:06.714Z,75.15
2017-12-14T15:29:34.336Z,75.31
2017-12-14T15:32:01.950Z,75.26
2017-12-14T15:34:29.546Z,75.33
2017-12-14T15:36:57.118Z,75.44
2017-12-14T15:39:24.738Z,75.84
2017-12-14T15:41:52.326Z,75.85
2017-12-14T15:44:19.980Z,75.30
2017-12-14T15:46:47.555Z,75.71
2017-12-14T15:49:15.165Z,75.80
2017-12-14T15:51:42.752Z,75.72
2017-12-14T15:54:10.317Z,75.86
2017-12-14T15:56:37.973Z,75.83
2017-12-14T15:59:05.572Z,76.16
2017-12-14T16:01:33.156Z,76.76
2017-12-14T16:04:00.732Z,76.15
2017-12-14T16:06:28.338Z,76.49
2017-12-14T16:08:55.892Z,76.43
2017-12-14T16:11:23.485Z,76.75
2017-12-14T16:13:51.053Z,76.78
2017-12-14T16:16:18.638Z,76.82
2017-12-14T16:18:46.223Z,76.66
2017-12-14T16:21:13.878Z,77.13
2017-12-14T16:23:41.486Z,76.88
2017-12-14T16:26:09.091Z,77.36
2017-12-14T16:28:36.682Z,77.51
2017-12-14T16:31:04.299Z,77.81
2017-12-14T16:33:31.887Z,77.72
2017-12-14T16:35:59.584Z,77.44
2017-12-14T16:38:27.185Z,77.51
2017-12-14T16:40:54.807Z,77.78
2017-12-14T16:43:22.498Z,77.99
2017-12-14T16:45:50.059Z,77.89
2017-12-14T16:48:17.655Z,77.85
2017-12-14T16:50:45.266Z,78.06
2017-12-14T16:53:12.865Z,77.60
2017-12-14T16:55:40.476Z,77.50
2017-12-14T16:58:08.061Z,77.58
2017-12-14T17:00:36.098Z,77.67
2017-12-14T17:03:03.699Z,77.90
2017-12-14T17:05:31.286Z,78.29
2017-12-14T17:07:58.887Z,78.08
2017-12-14T17:10:26.576Z,78.41
2017-12-14T17:12:54.215Z,78.05
2017-12-14T17:15:21.795Z,78.38
2017-12-14T17:17:49.382Z,78.35
2017-12-14T17:20:17.011Z,78.52
2017-12-14T17:22:44.586Z,78.79
2017-12-14T17:25:12.197Z,79.31
2017-12-14T17:27:39.848Z,79.08
2017-12-14T17:30:07.483Z,79.24
2017-12-14T17:32:35.216Z,79.32
2017-12-14T17:35:03.151Z,79.49
2017-12-14T17:37:30.748Z,79.63
2017-12-14T17:39:58.339Z,79.69
2017-12-14T17:42:25.937Z,79.91
2017-12-14T17:44:53.547Z,79.80
2017-12-14T17:47:21.154Z,80.15
2017-12-14T17:49:48.776Z,80.00
2017-12-14T17:52:16.363Z,80.04
2017-12-14T17:54:43.951Z,80.40
2017-12-14T17:57:11.646Z,80.70
2017-12-14T17:59:39.244Z,80.78
2017-12-14T18:02:06.848Z,80.85
2017-12-14T18:04:34.503Z,80.61
2017-12-14T18:07:02.143Z,80.59
2017-12-14T18:09:29.778Z,80.41
2017-12-14T18:11:57.444Z,80.43
2017-12-14T18:14:25.039Z,80.35
2017-12-14T18:16:52.716Z,80.37
2017-12-14T18:19:20.341Z,80.49
2017-12-14T18:21:47.955Z,80.71
2017-12-14T18:24:16.598Z,80.49
2017-12-14T18:26:44.237Z,80.34
2017-12-14T18:29:12.240Z,80.40
2017-12-14T18:31:39.867Z,80.42
2017-12-14T18:34:07.543Z,80.46
2017-12-14T18:36:35.155Z,80.55
2017-12-14T18:39:02.881Z,80.67
2017-12-14T18:41:31.164Z,80.96
2017-12-14T18:43:58.910Z,80.81
2017-12-14T18:46:26.513Z,80.66
2017-12-14T18:48:54.197Z,80.67
2017-12-14T18:51:21.863Z,80.55
2017-12-14T18:53:49.451Z,80.81
2017-12-14T18:56:17.081Z,80.73
2017-12-14T18:58:44.681Z,80.73
2017-12-14T19:01:12.419Z,80.83
2017-12-14T19:03:39.999Z,80.73
2017-12-14T19:06:07.629Z,80.86
2017-12-14T19:08:35.270Z,80.99
2017-12-14T19:11:02.904Z,80.81
2017-12-14T19:13:30.535Z,81.10
2017-12-14T19:15:58.136Z,81.44
2017-12-14T19:18:25.784Z,81.54
2017-12-14T19:20:53.399Z,81.59
2017-12-14T19:23:21.018Z,81.77
2017-12-14T19:25:48.620Z,82.04
2017-12-14T19:28:16.228Z,82.25
2017-12-14T19:30:43.864Z,81.72
2017-12-14T19:33:11.569Z,81.59
2017-12-14T19:35:39.300Z,81.64
2017-12-14T19:38:07.150Z,82.21
2017-12-14T19:40:34.832Z,82.11
2017-12-14T19:43:02.606Z,81.74
2017-12-14T19:45:31.372Z,81.54
2017-12-14T19:47:59.108Z,81.86
2017-12-14T19:50:26.832Z,81.96
2017-12-14T19:52:54.576Z,81.75
2017-12-14T19:55:22.359Z,81.61
2017-12-14T19:57:50.102Z,81.60
2017-12-14T20:00:18.564Z,81.36
2017-12-14T20:02:46.368Z,81.30
2017-12-14T20:05:14.110Z,81.90
2017-12-14T20:07:41.838Z,81.76
2017-12-14T20:10:09.572Z,81.75
2017-12-14T20:12:37.359Z,81.95
2017-12-14T20:15:05.114Z,81.90
2017-12-14T20:17:32.884Z,81.82
2017-12-14T20:20:00.696Z,81.65
2017-12-14T20:22:28.475Z,81.56
2017-12-14T20:24:56.188Z,81.58
2017-12-14T20:27:23.918Z,81.61
2017-12-14T20:29:51.635Z,81.74
2017-12-14T20:32:19.417Z,82.29
2017-12-14T20:34:47.178Z,82.10
2017-12-14T20:37:15.059Z,82.50
2017-12-14T20:39:42.763Z,82.32
2017-12-14T20:42:10.515Z,82.83
2017-12-14T20:44:38.235Z,83.39
2017-12-14T20:47:05.984Z,83.63
2017-12-14T20:49:33.667Z,84.09
2017-12-14T20:52:01.388Z,84.72
2017-12-14T20:54:30.165Z,84.89
2017-12-14T20:56:57.866Z,85.39
2017-12-14T20:59:25.586Z,85.76
2017-12-14T21:01:53.313Z,86.04
2017-12-14T21:04:21.308Z,86.34
2017-12-14T21:06:49.054Z,86.43
2017-12-14T21:09:16.889Z,86.92
2017-12-14T21:11:44.538Z,87.31
2017-12-14T21:14:12.214Z,87.80
2017-12-14T21:16:39.928Z,88.17
2017-12-14T21:19:07.581Z,88.56
2017-12-14T21:21:35.248Z,88.75
2017-12-14T21:24:02.990Z,89.36
2017-12-14T21:26:30.633Z,89.64
2017-12-14T21:28:58.254Z,89.95
2017-12-14T21:31:25.878Z,90.26
2017-12-14T21:33:53.486Z,90.74
2017-12-14T21:36:21.146Z,91.03
2017-12-14T21:38:48.736Z,91.33
2017-12-14T21:41:16.411Z,91.35
2017-12-14T21:43:43.984Z,91.55
2017-12-14T21:46:11.590Z,92.02
2017-12-14T21:48:39.182Z,92.34
2017-12-14T21:51:06.815Z,92.97
2017-12-14T21:53:34.414Z,93.13
2017-12-14T21:56:02.043Z,93.35
2017-12-14T21:58:29.666Z,93.45
2017-12-14T22:00:57.305Z,93.81
2017-12-14T22:03:24.911Z,94.26
2017-12-14T22:05:52.501Z,94.38
2017-12-14T22:08:20.157Z,94.72
2017-12-14T22:10:47.731Z,94.86
2017-12-14T22:13:15.373Z,95.03
2017-12-14T22:15:42.974Z,95.35
2017-12-14T22:18:10.575Z,95.40
2017-12-14T22:20:38.148Z,95.59
2017-12-14T22:23:05.750Z,95.85
2017-12-14T22:25:33.364Z,95.90
2017-12-14T22:28:01.002Z,95.92
2017-12-14T22:30:28.605Z,96.12
2017-12-14T22:32:56.213Z,96.32
2017-12-14T22:35:23.835Z,96.46
2017-12-14T22:37:51.413Z,96.57
2017-12-14T22:40:19.031Z,96.58
2017-12-14T22:42:46.643Z,96.54
2017-12-14T22:45:14.277Z,96.84
2017-12-14T22:47:41.891Z,96.96
2017-12-14T22:50:09.495Z,97.18
2017-12-14T22:52:37.062Z,97.20
2017-12-14T22:55:04.670Z,97.24
2017-12-14T22:57:32.313Z,97.25
2017-12-14T22:59:59.910Z,97.23
2017-12-14T23:02:27.545Z,97.16
2017-12-14T23:04:55.143Z,97.19
2017-12-14T23:07:22.785Z,97.13
2017-12-14T23:09:50.402Z,97.11
2017-12-14T23:12:18.033Z,97.14
2017-12-14T23:14:45.612Z,97.25
2017-12-14T23:17:13.193Z,97.31
2017-12-14T23:19:40.775Z,97.30
2017-12-14T23:22:08.461Z,97.42
2017-12-14T23:24:36.206Z,97.38
2017-12-14T23:27:03.838Z,97.34
2017-12-14T23:29:31.783Z,97.55
2017-12-14T23:31:59.375Z,97.64
2017-12-14T23:34:27.007Z,97.74
2017-12-14T23:36:54.615Z,97.78
2017-12-14T23:39:22.227Z,97.74
2017-12-14T23:41:49.801Z,97.57
2017-12-14T23:44:17.437Z,97.60
2017-12-14T23:46:45.070Z,97.73
2017-12-14T23:49:12.928Z,97.69
2017-12-14T23:51:40.513Z,97.61
2017-12-14T23:54:08.098Z,97.65
2017-12-14T23:56:35.732Z,97.65
2017-12-14T23:59:03.339Z,97.74
